Time;durP1;ratioP1;P1;durP2;ratioP2;P2;SDS_P1;SDS_P2;PMS_P1;PMS_P2;Temp;Humidity;BMP_temperature;BMP_pressure;BME280_temperature;BME280_humidity;BME280_pressure;Samples;Min_cycle;Max_cycle;Signal;HPM_P1;HPM_P2
2021/07/01 00:01:10;;;;;;;5.50;3.75;;;13.50;99.90;;;;;;5041618;28;20033;-77
2021/07/01 00:03:36;;;;;;;6.03;3.30;;;13.50;99.90;;;;;;5049630;28;20112;-77
2021/07/01 00:06:02;;;;;;;3.80;3.50;;;13.50;99.90;;;;;;5033812;28;20042;-77
2021/07/01 00:08:28;;;;;;;4.05;3.38;;;13.50;99.90;;;;;;5033160;28;20432;-77
2021/07/01 00:10:53;;;;;;;6.35;3.20;;;13.30;99.90;;;;;;5032950;28;20025;-77
2021/07/01 00:13:19;;;;;;;6.93;3.88;;;13.10;99.90;;;;;;5032992;28;20018;-77
2021/07/01 00:15:45;;;;;;;5.18;4.18;;;13.00;99.90;;;;;;5032815;28;20079;-77
2021/07/01 00:18:11;;;;;;;12.80;4.05;;;12.90;99.90;;;;;;5041850;28;20028;-77
2021/07/01 00:20:37;;;;;;;4.22;3.85;;;12.70;99.90;;;;;;5032679;28;20056;-77
2021/07/01 00:23:03;;;;;;;5.32;3.60;;;13.00;99.90;;;;;;5051112;28;20033;-77
2021/07/01 00:25:29;;;;;;;4.00;3.70;;;13.30;99.90;;;;;;5052678;28;20025;-77
2021/07/01 00:27:56;;;;;;;6.82;3.50;;;13.30;99.90;;;;;;5043485;28;20044;-77
2021/07/01 00:30:22;;;;;;;4.85;3.03;;;13.20;99.90;;;;;;5033102;28;20029;-77
2021/07/01 00:32:49;;;;;;;5.55;3.33;;;13.00;99.90;;;;;;5032847;28;20026;-77
2021/07/01 00:35:15;;;;;;;5.65;3.17;;;13.00;99.90;;;;;;5032494;28;20021;-77
2021/07/01 00:37:42;;;;;;;15.07;3.95;;;13.00;99.90;;;;;;5032674;28;20025;-77
2021/07/01 00:40:09;;;;;;;4.57;3.30;;;12.90;99.90;;;;;;5032519;28;20541;-77
2021/07/01 00:42:36;;;;;;;3.65;3.35;;;12.90;99.90;;;;;;5032603;28;20106;-77
2021/07/01 00:45:03;;;;;;;7.35;4.50;;;12.90;99.90;;;;;;5032232;28;20026;-77
2021/07/01 00:47:29;;;;;;;6.82;3.97;;;12.90;99.90;;;;;;5052015;28;20039;-77
2021/07/01 00:49:55;;;;;;;6.80;4.80;;;13.00;99.90;;;;;;5048546;28;20038;-77
2021/07/01 00:52:21;;;;;;;4.60;3.90;;;13.00;99.90;;;;;;5036690;28;20033;-77
2021/07/01 00:54:47;;;;;;;4.57;4.18;;;13.00;99.90;;;;;;5052112;28;20481;-77
2021/07/01 00:57:12;;;;;;;3.83;3.40;;;12.90;99.90;;;;;;5044444;28;20171;-77
2021/07/01 00:59:39;;;;;;;3.38;3.08;;;12.90;99.90;;;;;;5032167;28;20491;-77
2021/07/01 01:02:06;;;;;;;5.05;4.15;;;12.90;99.90;;;;;;5047218;28;20033;-77
2021/07/01 01:04:32;;;;;;;4.18;3.78;;;13.00;99.90;;;;;;5034424;28;20030;-77
2021/07/01 01:06:58;;;;;;;9.90;4.18;;;13.00;99.90;;;;;;5032193;28;20025;-77
2021/07/01 01:09:24;;;;;;;4.32;3.67;;;13.00;99.90;;;;;;5030751;28;20086;-77
2021/07/01 01:11:50;;;;;;;4.75;3.97;;;12.90;99.90;;;;;;5031149;28;20030;-77
2021/07/01 01:14:16;;;;;;;6.82;4.22;;;12.80;99.90;;;;;;5047932;28;20037;-77
2021/07/01 01:16:41;;;;;;;7.13;4.13;;;12.80;99.90;;;;;;5051897;28;20056;-77
2021/07/01 01:19:07;;;;;;;3.58;3.28;;;12.70;99.90;;;;;;5052021;28;20065;-77
2021/07/01 01:21:33;;;;;;;4.07;3.67;;;12.70;99.90;;;;;;5040819;28;20037;-77
2021/07/01 01:24:01;;;;;;;4.72;3.42;;;12.70;99.90;;;;;;5032019;28;20120;-77
2021/07/01 01:26:27;;;;;;;5.57;4.15;;;12.70;99.90;;;;;;5031911;28;20385;-77
2021/07/01 01:28:54;;;;;;;4.53;3.50;;;12.70;99.90;;;;;;5038518;28;20400;-77
2021/07/01 01:31:21;;;;;;;5.47;3.92;;;12.80;99.90;;;;;;5050193;28;20111;-77
2021/07/01 01:33:49;;;;;;;4.57;3.67;;;12.80;99.90;;;;;;5052178;28;20017;-77
2021/07/01 01:36:14;;;;;;;5.40;3.58;;;12.80;99.90;;;;;;5053689;28;20116;-77
2021/07/01 01:38:40;;;;;;;5.88;3.47;;;12.70;99.90;;;;;;5038718;28;20112;-77
2021/07/01 01:41:06;;;;;;;5.95;3.20;;;12.50;99.90;;;;;;5037337;28;20064;-77
2021/07/01 01:43:32;;;;;;;5.65;3.50;;;12.60;99.90;;;;;;5043287;28;20401;-78
2021/07/01 01:45:57;;;;;;;5.07;4.30;;;12.60;99.90;;;;;;5035792;28;20036;-78
2021/07/01 01:48:23;;;;;;;3.78;3.38;;;12.50;99.90;;;;;;5035817;28;20068;-78
2021/07/01 01:50:49;;;;;;;3.47;3.17;;;12.50;99.90;;;;;;5035257;28;20053;-78
2021/07/01 01:53:15;;;;;;;5.90;4.00;;;12.50;99.90;;;;;;5035709;28;20032;-77
2021/07/01 01:55:41;;;;;;;6.70;4.30;;;12.60;99.90;;;;;;5035791;28;20018;-77
2021/07/01 01:58:08;;;;;;;9.02;5.03;;;12.60;99.90;;;;;;5045399;28;20029;-77
2021/07/01 02:00:35;;;;;;;9.15;4.80;;;12.70;99.90;;;;;;5055515;28;20425;-77
2021/07/01 02:03:01;;;;;;;4.80;3.22;;;12.60;99.90;;;;;;5047634;28;20029;-77
2021/07/01 02:05:27;;;;;;;6.63;3.22;;;12.60;99.90;;;;;;5055299;28;20131;-77
2021/07/01 02:07:53;;;;;;;6.32;3.50;;;12.40;99.90;;;;;;5055505;28;20105;-77
2021/07/01 02:10:25;;;;;;;8.52;3.63;;;12.30;99.90;;;;;;5055573;28;20024;-77
2021/07/01 02:12:51;;;;;;;4.88;3.17;;;12.30;99.90;;;;;;5054947;28;20427;-77
2021/07/01 02:15:22;;;;;;;5.63;3.58;;;12.30;99.90;;;;;;5055017;28;20032;-77
2021/07/01 02:17:52;;;;;;;3.90;3.53;;;12.30;99.90;;;;;;5055285;28;20025;-77
2021/07/01 02:20:19;;;;;;;4.17;3.80;;;12.30;99.90;;;;;;5054049;28;20505;-77
2021/07/01 02:22:47;;;;;;;4.50;3.92;;;12.20;99.90;;;;;;5055156;28;20017;-77
2021/07/01 02:25:13;;;;;;;6.05;3.88;;;12.40;99.90;;;;;;5054909;28;20029;-77
2021/07/01 02:27:40;;;;;;;10.00;4.18;;;12.40;99.90;;;;;;5043825;28;20499;-77
2021/07/01 02:30:08;;;;;;;4.20;2.90;;;12.50;99.90;;;;;;5034970;28;20024;-77
2021/07/01 02:32:34;;;;;;;3.67;3.30;;;12.30;99.90;;;;;;5035191;28;20100;-77
2021/07/01 02:35:00;;;;;;;3.42;2.80;;;12.10;99.90;;;;;;5034803;28;20025;-77
2021/07/01 02:37:26;;;;;;;5.65;3.40;;;12.00;99.90;;;;;;5033305;28;20029;-77
2021/07/01 02:39:52;;;;;;;8.00;3.40;;;12.00;99.90;;;;;;5038773;28;20009;-77
2021/07/01 02:42:17;;;;;;;6.72;3.28;;;12.10;99.90;;;;;;5039186;28;20048;-77
2021/07/01 02:44:43;;;;;;;6.85;3.58;;;12.00;99.90;;;;;;5039798;28;20052;-77
2021/07/01 02:47:09;;;;;;;4.15;3.08;;;12.00;99.90;;;;;;5047242;28;20024;-77
2021/07/01 02:49:35;;;;;;;10.40;4.63;;;12.10;99.90;;;;;;5034432;28;20071;-77
2021/07/01 02:52:01;;;;;;;6.13;4.90;;;12.10;99.90;;;;;;5034766;28;20030;-77
2021/07/01 02:54:27;;;;;;;4.50;4.00;;;12.20;99.90;;;;;;5034126;28;20018;-77
2021/07/01 02:56:53;;;;;;;9.07;4.55;;;12.20;99.90;;;;;;5049004;28;20037;-77
2021/07/01 02:59:19;;;;;;;5.55;4.70;;;12.20;99.90;;;;;;5034295;28;20037;-77
2021/07/01 03:01:49;;;;;;;3.65;3.35;;;12.30;99.90;;;;;;5045722;28;20407;-77
2021/07/01 03:04:15;;;;;;;3.58;2.95;;;12.20;99.90;;;;;;5037701;28;20030;-77
2021/07/01 03:06:43;;;;;;;3.80;3.17;;;12.10;99.90;;;;;;5033658;28;20038;-77
2021/07/01 03:09:09;;;;;;;11.63;3.33;;;12.00;99.90;;;;;;5035317;28;20033;-77
2021/07/01 03:11:35;;;;;;;20.35;4.40;;;11.80;99.90;;;;;;5054514;28;20119;-77
2021/07/01 03:14:01;;;;;;;32.92;5.95;;;11.80;99.90;;;;;;5053510;28;20018;-77
2021/07/01 03:16:27;;;;;;;7.93;6.05;;;11.80;99.90;;;;;;5042447;28;20022;-77
2021/07/01 03:18:54;;;;;;;11.23;6.97;;;11.90;99.90;;;;;;5049824;28;20495;-77
2021/07/01 03:21:21;;;;;;;12.70;5.93;;;12.10;99.90;;;;;;5044747;28;20033;-77
2021/07/01 03:23:47;;;;;;;73.78;7.80;;;12.10;99.90;;;;;;5051049;28;20025;-77
2021/07/01 03:26:15;;;;;;;11.75;6.05;;;12.20;99.90;;;;;;5047816;28;20021;-77
2021/07/01 03:28:41;;;;;;;6.10;4.95;;;12.20;99.90;;;;;;5050533;28;20108;-77
2021/07/01 03:31:08;;;;;;;12.95;4.70;;;12.20;99.90;;;;;;5044330;28;20041;-77
2021/07/01 03:33:35;;;;;;;6.13;4.00;;;12.00;99.90;;;;;;5049985;28;20051;-77
2021/07/01 03:36:01;;;;;;;8.15;4.15;;;11.90;99.90;;;;;;5049186;28;20495;-77
2021/07/01 03:38:27;;;;;;;14.23;4.75;;;11.90;99.90;;;;;;5050335;28;20439;-76
2021/07/01 03:40:54;;;;;;;6.55;3.85;;;12.00;99.90;;;;;;5047646;28;20070;-76
2021/07/01 03:43:20;;;;;;;8.63;4.80;;;12.00;99.90;;;;;;5046298;28;20079;-77
2021/07/01 03:45:46;;;;;;;7.28;3.83;;;12.00;99.90;;;;;;5047683;28;20109;-77
2021/07/01 03:48:12;;;;;;;7.03;3.78;;;11.90;99.90;;;;;;5041211;28;20116;-77
2021/07/01 03:50:39;;;;;;;4.25;3.40;;;11.80;99.90;;;;;;5050006;28;20103;-77
2021/07/01 03:53:04;;;;;;;7.18;3.53;;;11.80;99.90;;;;;;5038197;28;20080;-77
2021/07/01 03:55:30;;;;;;;4.43;3.55;;;11.80;99.90;;;;;;5032857;28;20021;-78
2021/07/01 03:57:56;;;;;;;7.50;3.97;;;11.70;99.90;;;;;;5032751;28;20444;-78
2021/07/01 04:00:22;;;;;;;7.78;4.25;;;11.80;99.90;;;;;;5031968;28;20037;-78
2021/07/01 04:02:48;;;;;;;7.30;3.85;;;11.90;99.90;;;;;;5042581;28;20505;-78
2021/07/01 04:05:14;;;;;;;5.32;4.00;;;11.90;99.90;;;;;;5052944;28;20373;-78
2021/07/01 04:07:40;;;;;;;5.88;3.30;;;11.90;99.90;;;;;;5052776;28;20029;-78
2021/07/01 04:10:09;;;;;;;5.05;3.15;;;11.90;99.90;;;;;;5053013;28;20029;-78
2021/07/01 04:12:35;;;;;;;6.20;3.25;;;11.80;99.90;;;;;;5052936;28;20128;-78
2021/07/01 04:15:03;;;;;;;6.05;3.97;;;11.90;99.90;;;;;;5051730;28;20527;-78
2021/07/01 04:17:28;;;;;;;5.43;3.88;;;11.80;99.90;;;;;;5052813;28;20032;-78
2021/07/01 04:19:54;;;;;;;8.60;4.50;;;11.80;99.90;;;;;;5034891;28;20075;-78
2021/07/01 04:22:20;;;;;;;5.20;3.95;;;11.80;99.90;;;;;;5032443;28;20029;-78
2021/07/01 04:24:46;;;;;;;22.83;4.40;;;11.70;99.90;;;;;;5032725;28;20025;-78
2021/07/01 04:27:12;;;;;;;12.00;4.95;;;11.70;99.90;;;;;;5045935;28;20481;-79
2021/07/01 04:29:38;;;;;;;9.63;4.82;;;11.80;99.90;;;;;;5047093;28;20495;-78
2021/07/01 04:32:04;;;;;;;5.20;4.22;;;11.90;99.90;;;;;;5031416;28;20036;-78
2021/07/01 04:34:30;;;;;;;11.57;5.07;;;12.00;99.90;;;;;;5032615;28;20026;-78
2021/07/01 04:36:56;;;;;;;14.27;4.00;;;11.90;99.90;;;;;;5032170;28;20032;-78
2021/07/01 04:39:23;;;;;;;21.45;5.07;;;11.80;99.90;;;;;;5032668;28;20083;-78
2021/07/01 04:41:48;;;;;;;5.07;4.25;;;11.80;99.90;;;;;;5032506;28;20095;-78
2021/07/01 04:44:14;;;;;;;28.52;5.53;;;11.90;99.90;;;;;;5032549;28;20029;-78
2021/07/01 04:46:40;;;;;;;23.50;5.00;;;11.90;99.90;;;;;;5032572;28;20029;-78
2021/07/01 04:49:06;;;;;;;19.05;5.30;;;11.80;99.90;;;;;;5032404;28;20022;-78
2021/07/01 04:51:31;;;;;;;13.50;5.28;;;11.90;99.90;;;;;;5033248;28;20112;-78
2021/07/01 04:53:57;;;;;;;26.20;4.68;;;11.90;99.90;;;;;;5043721;28;20021;-78
2021/07/01 04:56:23;;;;;;;8.35;4.60;;;12.00;99.90;;;;;;5034864;28;20389;-77
2021/07/01 04:58:49;;;;;;;8.82;3.90;;;12.10;99.90;;;;;;5047110;28;20021;-78
2021/07/01 05:01:15;;;;;;;3.42;3.13;;;12.10;99.90;;;;;;5052359;28;20021;-78
2021/07/01 05:03:41;;;;;;;6.53;3.85;;;12.10;99.90;;;;;;5052174;28;20029;-78
2021/07/01 05:06:06;;;;;;;4.20;3.75;;;12.10;99.90;;;;;;5051803;28;20068;-78
2021/07/01 05:08:32;;;;;;;4.53;4.13;;;12.10;99.90;;;;;;5048689;28;20053;-78
2021/07/01 05:10:58;;;;;;;5.85;3.60;;;12.20;99.90;;;;;;5045832;28;20025;-78
2021/07/01 05:13:24;;;;;;;4.78;3.58;;;12.30;99.90;;;;;;5056177;28;20029;-78
2021/07/01 05:15:50;;;;;;;6.80;4.50;;;12.40;99.90;;;;;;5055019;28;20017;-78
2021/07/01 05:18:15;;;;;;;4.75;4.18;;;12.60;99.90;;;;;;5055364;28;20401;-78
2021/07/01 05:20:44;;;;;;;7.07;4.03;;;12.70;99.90;;;;;;5049861;28;20079;-78
2021/07/01 05:23:10;;;;;;;9.35;3.97;;;12.80;99.90;;;;;;5054235;28;20033;-78
2021/07/01 05:25:36;;;;;;;6.45;3.83;;;12.80;99.90;;;;;;5056124;28;20166;-78
2021/07/01 05:28:11;;;;;;;4.65;3.65;;;12.80;99.90;;;;;;5055707;28;20532;-78
2021/07/01 05:30:37;;;;;;;6.53;3.70;;;12.70;99.90;;;;;;5056069;28;20036;-78
2021/07/01 05:33:03;;;;;;;4.53;3.85;;;12.70;99.90;;;;;;5046710;28;20505;-79
2021/07/01 05:35:29;;;;;;;5.75;3.70;;;12.80;99.90;;;;;;5045259;28;20445;-79
2021/07/01 05:37:55;;;;;;;4.65;3.80;;;12.90;99.90;;;;;;5035968;28;20141;-78
2021/07/01 05:40:22;;;;;;;6.85;4.18;;;13.10;99.90;;;;;;5046768;28;20111;-78
2021/07/01 05:42:48;;;;;;;7.70;3.88;;;13.10;99.90;;;;;;5046540;28;20022;-78
2021/07/01 05:45:14;;;;;;;5.35;3.45;;;13.10;99.90;;;;;;5048165;28;20500;-78
2021/07/01 05:47:41;;;;;;;4.47;4.18;;;13.20;99.90;;;;;;5039359;28;20065;-78
2021/07/01 05:50:09;;;;;;;7.97;4.15;;;13.30;99.90;;;;;;5051316;28;20021;-79
2021/07/01 05:52:36;;;;;;;5.78;4.47;;;13.40;99.90;;;;;;5042587;28;20022;-79
2021/07/01 05:55:03;;;;;;;7.00;4.50;;;13.40;99.90;;;;;;5049383;28;20025;-85
2021/07/01 05:57:29;;;;;;;7.47;4.55;;;13.50;99.90;;;;;;5050237;28;20025;-79
2021/07/01 05:59:55;;;;;;;9.63;4.75;;;13.60;99.90;;;;;;5035523;28;20025;-79
2021/07/01 06:02:21;;;;;;;11.63;9.88;;;13.60;99.90;;;;;;5038549;28;20020;-79
2021/07/01 06:04:47;;;;;;;9.30;4.85;;;13.70;99.90;;;;;;5055062;28;20081;-79
2021/07/01 06:07:24;;;;;;;4.60;4.15;;;13.80;99.90;;;;;;5055388;28;20053;-79
2021/07/01 06:09:57;;;;;;;4.88;4.38;;;13.70;99.90;;;;;;5055274;28;20025;-79
2021/07/01 06:12:23;;;;;;;9.65;4.55;;;13.70;99.90;;;;;;5055408;28;20381;-79
2021/07/01 06:14:57;;;;;;;6.55;4.43;;;13.70;99.90;;;;;;5055143;28;20025;-79
2021/07/01 06:17:30;;;;;;;7.05;5.03;;;13.70;99.90;;;;;;5055289;28;20388;-79
2021/07/01 06:19:56;;;;;;;8.38;4.72;;;13.70;99.90;;;;;;5054625;28;20037;-79
2021/07/01 06:22:22;;;;;;;5.80;4.40;;;13.80;99.90;;;;;;5053793;28;20025;-79
2021/07/01 06:24:54;;;;;;;5.40;4.78;;;14.00;99.90;;;;;;5054892;28;20439;-79
2021/07/01 06:27:27;;;;;;;7.30;4.80;;;14.00;99.90;;;;;;5054912;28;20025;-79
2021/07/01 06:29:54;;;;;;;5.60;4.30;;;14.10;99.90;;;;;;5054845;28;20036;-80
2021/07/01 06:32:20;;;;;;;6.60;5.90;;;14.10;99.90;;;;;;5054642;28;20036;-79
2021/07/01 06:34:45;;;;;;;6.35;5.28;;;14.30;99.90;;;;;;5054783;28;20025;-79
2021/07/01 06:37:13;;;;;;;6.10;4.93;;;14.40;99.90;;;;;;5054863;28;20079;-79
2021/07/01 06:39:43;;;;;;;6.20;4.40;;;14.60;99.90;;;;;;5054745;28;20029;-79
2021/07/01 06:42:09;;;;;;;;;;;14.70;99.90;;;;;;5055180;28;20108;-79
2021/07/01 06:44:37;;;;;;;6.38;4.78;;;14.80;99.90;;;;;;5054695;28;19999;-79
2021/07/01 06:47:03;;;;;;;8.30;5.72;;;14.90;99.90;;;;;;5052931;28;20504;-79
2021/07/01 06:49:31;;;;;;;5.35;4.85;;;15.00;99.90;;;;;;5054584;28;20029;-79
2021/07/01 06:51:59;;;;;;;5.22;4.82;;;15.10;99.90;;;;;;5054453;28;20369;-79
2021/07/01 06:54:26;;;;;;;5.63;4.90;;;15.20;99.90;;;;;;5054772;28;20052;-79
2021/07/01 06:56:52;;;;;;;6.05;5.45;;;15.40;99.90;;;;;;5054449;28;20028;-79
2021/07/01 06:59:20;;;;;;;5.60;4.47;;;15.40;99.90;;;;;;5054441;28;20041;-79
2021/07/01 07:01:48;;;;;;;6.28;4.78;;;15.60;99.90;;;;;;5054268;28;20039;-79
2021/07/01 07:04:17;;;;;;;9.00;4.93;;;15.60;99.90;;;;;;5054159;28;20044;-79
2021/07/01 07:06:44;;;;;;;6.05;5.45;;;15.80;99.90;;;;;;5054261;28;20032;-79
2021/07/01 07:09:12;;;;;;;5.60;5.03;;;16.00;99.90;;;;;;5054110;28;20048;-79
2021/07/01 07:11:39;;;;;;;5.35;4.15;;;16.10;99.90;;;;;;5054133;28;20543;-79
2021/07/01 07:14:04;;;;;;;6.93;5.00;;;16.20;99.90;;;;;;5053696;28;20489;-79
2021/07/01 07:16:38;;;;;;;6.55;5.65;;;16.30;99.90;;;;;;5053869;28;20028;-79
2021/07/01 07:19:09;;;;;;;18.20;5.38;;;16.50;99.90;;;;;;5053893;28;20052;-79
2021/07/01 07:21:45;;;;;;;5.35;4.68;;;16.60;99.90;;;;;;5054059;28;20029;-79
2021/07/01 07:24:14;;;;;;;6.25;4.55;;;16.80;99.90;;;;;;5053849;28;20602;-79
2021/07/01 07:26:41;;;;;;;7.13;4.25;;;17.00;99.90;;;;;;5053924;28;20021;-79
2021/07/01 07:29:09;;;;;;;4.85;3.92;;;17.10;99.90;;;;;;5053873;28;20057;-79
2021/07/01 07:31:39;;;;;;;5.07;3.13;;;17.30;99.90;;;;;;5052033;28;20437;-79
2021/07/01 07:34:05;;;;;;;4.22;3.05;;;17.70;99.90;;;;;;5053372;28;20033;-79
2021/07/01 07:36:31;;;;;;;9.38;3.35;;;18.20;99.90;;;;;;5053809;28;20030;-79
2021/07/01 07:38:57;;;;;;;2.83;2.50;;;18.40;99.90;;;;;;5053625;28;20029;-79
2021/07/01 07:41:24;;;;;;;3.80;2.85;;;18.50;99.90;;;;;;5053672;28;20047;-80
2021/07/01 07:43:51;;;;;;;6.05;2.90;;;18.60;99.90;;;;;;5053808;28;20025;-79
2021/07/01 07:46:19;;;;;;;3.40;2.30;;;18.80;99.90;;;;;;5053085;28;20021;-79
2021/07/01 07:48:45;;;;;;;2.85;2.35;;;18.90;99.90;;;;;;5053577;28;20040;-79
2021/07/01 07:51:17;;;;;;;2.83;2.63;;;19.00;99.90;;;;;;5053447;28;20100;-79
2021/07/01 07:53:48;;;;;;;1.92;1.83;;;19.10;99.90;;;;;;5053531;28;20029;-79
2021/07/01 07:56:16;;;;;;;2.35;2.05;;;19.20;99.90;;;;;;5053242;28;20489;-79
2021/07/01 07:58:49;;;;;;;2.15;1.95;;;19.40;99.90;;;;;;5053258;28;20036;-79
2021/07/01 08:01:15;;;;;;;4.15;2.08;;;19.40;99.90;;;;;;5052814;28;20025;-79
2021/07/01 08:03:42;;;;;;;4.50;2.60;;;19.40;99.90;;;;;;5053207;28;20031;-79
2021/07/01 08:06:10;;;;;;;2.53;2.30;;;19.60;99.90;;;;;;5052999;28;20436;-79
2021/07/01 08:08:43;;;;;;;3.28;2.97;;;19.70;99.90;;;;;;5053012;28;20503;-79
2021/07/01 08:11:10;;;;;;;11.50;2.65;;;19.80;99.90;;;;;;5053067;28;20477;-80
2021/07/01 08:13:38;;;;;;;3.92;2.30;;;19.90;99.90;;;;;;5052585;28;20028;-79
2021/07/01 08:16:05;;;;;;;6.60;2.17;;;20.00;99.90;;;;;;5053032;28;20021;-79
2021/07/01 08:18:38;;;;;;;5.03;2.45;;;19.90;99.90;;;;;;5052987;28;20078;-79
2021/07/01 08:21:09;;;;;;;2.80;2.20;;;20.20;99.90;;;;;;5052856;28;20044;-80
2021/07/01 08:23:35;;;;;;;3.15;2.33;;;20.30;99.90;;;;;;5052786;28;20033;-79
2021/07/01 08:26:02;;;;;;;2.03;1.88;;;20.40;99.90;;;;;;5052686;28;20021;-79
2021/07/01 08:28:29;;;;;;;2.42;1.75;;;20.60;99.90;;;;;;5052519;28;20036;-79
2021/07/01 08:30:58;;;;;;;1.90;1.80;;;20.70;99.90;;;;;;5052806;28;20029;-79
2021/07/01 08:33:34;;;;;;;1.85;1.75;;;20.70;99.90;;;;;;5052748;28;20051;-79
2021/07/01 08:36:01;;;;;;;2.30;2.03;;;20.70;99.90;;;;;;5052510;28;20397;-80
2021/07/01 08:38:27;;;;;;;2.90;2.63;;;21.00;99.90;;;;;;5052987;28;20567;-79
2021/07/01 08:41:03;;;;;;;2.63;2.28;;;21.10;99.90;;;;;;5052715;28;20028;-79
2021/07/01 08:43:48;;;;;;;2.10;1.90;;;21.20;99.90;;;;;;5050981;28;20102;-79
2021/07/01 08:46:15;;;;;;;6.30;2.22;;;21.30;99.90;;;;;;5052375;28;20086;-79
2021/07/01 08:48:59;;;;;;;3.45;1.95;;;21.40;99.90;;;;;;5052402;28;20469;-79
2021/07/01 08:51:46;;;;;;;2.95;2.10;;;21.40;99.90;;;;;;5052358;28;20025;-79
2021/07/01 08:54:32;;;;;;;3.05;2.08;;;21.50;99.90;;;;;;5052255;28;20036;-79
2021/07/01 08:57:00;;;;;;;2.63;2.42;;;21.60;99.90;;;;;;5052235;28;20048;-79
2021/07/01 08:59:33;;;;;;;3.00;2.42;;;21.70;99.90;;;;;;5050794;28;20032;-79
2021/07/01 09:02:02;;;;;;;6.68;3.00;;;22.00;99.90;;;;;;5051986;28;20457;-79
2021/07/01 09:04:38;;;;;;;2.17;1.98;;;22.20;98.90;;;;;;5031204;28;20030;-79
2021/07/01 09:07:04;;;;;;;4.32;2.33;;;21.90;97.90;;;;;;5032434;28;20040;-79
2021/07/01 09:09:33;;;;;;;5.22;2.55;;;21.70;99.10;;;;;;5032292;28;20030;-79
2021/07/01 09:12:02;;;;;;;5.65;2.20;;;21.90;99.80;;;;;;5032063;28;20030;-79
2021/07/01 09:14:29;;;;;;;3.78;2.50;;;22.00;99.90;;;;;;5032360;28;20056;-79
2021/07/01 09:16:55;;;;;;;2.47;2.05;;;22.60;97.40;;;;;;5032404;28;20021;-79
2021/07/01 09:19:25;;;;;;;3.55;2.20;;;22.90;99.30;;;;;;5030817;28;20410;-79
2021/07/01 09:21:52;;;;;;;4.47;2.38;;;23.00;97.30;;;;;;5032375;28;20064;-79
2021/07/01 09:24:18;;;;;;;4.60;2.67;;;23.10;95.70;;;;;;5032202;28;20393;-79
2021/07/01 09:26:48;;;;;;;29.35;6.22;;;23.40;96.50;;;;;;5031951;28;20075;-79
2021/07/01 09:29:15;;;;;;;5.22;2.67;;;23.60;95.30;;;;;;5032117;28;20029;-79
2021/07/01 09:31:42;;;;;;;2.40;2.20;;;23.70;94.30;;;;;;5032237;28;20030;-79
2021/07/01 09:34:09;;;;;;;2.97;2.75;;;23.70;93.90;;;;;;5032181;28;20018;-79
2021/07/01 09:36:36;;;;;;;2.15;2.03;;;24.20;92.70;;;;;;5030785;28;20389;-79
2021/07/01 09:39:04;;;;;;;5.75;2.28;;;24.20;93.30;;;;;;5031941;28;20032;-79
2021/07/01 09:41:30;;;;;;;3.05;1.92;;;24.50;93.00;;;;;;5031709;28;20068;-79
2021/07/01 09:43:58;;;;;;;2.30;1.77;;;24.70;91.70;;;;;;5032101;28;20516;-79
2021/07/01 09:46:28;;;;;;;3.45;2.33;;;24.80;93.10;;;;;;5031934;28;20021;-79
2021/07/01 09:48:58;;;;;;;2.03;1.83;;;24.50;91.60;;;;;;5031916;28;20041;-79
2021/07/01 09:51:28;;;;;;;2.20;2.00;;;24.70;89.50;;;;;;5031640;28;20025;-79
2021/07/01 09:53:54;;;;;;;1.83;1.70;;;24.50;87.40;;;;;;5032026;28;20500;-79
2021/07/01 09:56:37;;;;;;;3.63;2.00;;;24.30;84.30;;;;;;5032485;28;20032;-79
2021/07/01 09:59:10;;;;;;;4.20;2.10;;;24.40;88.60;;;;;;5035809;28;20025;-79
2021/07/01 10:01:38;;;;;;;3.75;1.95;;;24.50;87.30;;;;;;5035563;28;20030;-79
2021/07/01 10:04:06;;;;;;;4.25;2.15;;;24.90;89.60;;;;;;5052363;28;20032;-79
2021/07/01 10:06:31;;;;;;;2.58;2.38;;;25.00;85.70;;;;;;5054065;28;20409;-79
2021/07/01 10:08:57;;;;;;;5.40;1.92;;;25.10;87.50;;;;;;5055437;28;20037;-79
2021/07/01 10:11:41;;;;;;;5.03;2.22;;;25.40;88.00;;;;;;5053635;28;20028;-79
2021/07/01 10:14:13;;;;;;;2.53;1.80;;;25.20;79.50;;;;;;5055382;28;20439;-79
2021/07/01 10:16:39;;;;;;;2.83;1.88;;;25.50;81.40;;;;;;5055314;28;20100;-79
2021/07/01 10:19:09;;;;;;;2.45;2.00;;;26.00;83.00;;;;;;5055126;28;20464;-79
2021/07/01 10:21:37;;;;;;;2.55;2.13;;;26.40;83.10;;;;;;5055193;28;20489;-79
2021/07/01 10:24:19;;;;;;;2.20;1.70;;;26.40;77.90;;;;;;5054924;28;20075;-79
2021/07/01 10:26:47;;;;;;;2.20;1.80;;;27.00;76.10;;;;;;5055114;28;20391;-79
2021/07/01 10:29:14;;;;;;;2.40;2.13;;;30.60;65.30;;;;;;5054872;28;20083;-79
2021/07/01 10:31:47;;;;;;;2.80;2.53;;;33.70;41.40;;;;;;5054962;28;20492;-79
2021/07/01 10:34:13;;;;;;;2.55;2.10;;;33.40;23.40;;;;;;5054951;28;20036;-79
2021/07/01 10:36:39;;;;;;;2.17;1.88;;;33.50;21.40;;;;;;5054887;28;20032;-79
2021/07/01 10:39:06;;;;;;;2.10;1.90;;;34.60;13.50;;;;;;5054613;28;20108;-79
2021/07/01 10:41:37;;;;;;;1.92;1.83;;;33.90;9.80;;;;;;5054675;28;20527;-79
2021/07/01 10:44:05;;;;;;;3.70;2.30;;;35.00;6.80;;;;;;5054831;28;20111;-79
2021/07/01 10:46:45;;;;;;;1.95;1.80;;;35.00;4.70;;;;;;5054600;28;20096;-79
2021/07/01 10:49:12;;;;;;;3.90;2.28;;;34.70;3.70;;;;;;5053376;28;20396;-79
2021/07/01 10:51:54;;;;;;;3.03;2.10;;;34.90;8.20;;;;;;5054621;28;20104;-79
2021/07/01 10:54:20;;;;;;;2.38;1.58;;;34.60;2.10;;;;;;5054233;28;20459;-79
2021/07/01 10:56:49;;;;;;;3.00;2.67;;;33.00;6.40;;;;;;5054424;28;20029;-79
2021/07/01 10:59:15;;;;;;;2.20;2.10;;;33.80;4.20;;;;;;5054513;28;20108;-79
2021/07/01 11:01:42;;;;;;;1.95;1.85;;;35.80;1.00;;;;;;5054497;28;20358;-80
2021/07/01 11:04:15;;;;;;;3.55;1.95;;;36.60;1.00;;;;;;5054177;28;20029;-79
2021/07/01 11:06:43;;;;;;;2.78;2.10;;;36.10;1.00;;;;;;5053649;28;20025;-79
2021/07/01 11:09:11;;;;;;;3.53;2.08;;;34.60;1.00;;;;;;5053655;28;20460;-79
2021/07/01 11:11:41;;;;;;;3.63;2.05;;;36.20;1.00;;;;;;5054264;28;20100;-79
2021/07/01 11:14:10;;;;;;;3.35;2.65;;;35.50;1.00;;;;;;5054255;28;20082;-79
2021/07/01 11:16:38;;;;;;;2.20;1.85;;;36.40;1.00;;;;;;5054106;28;20014;-79
2021/07/01 11:19:05;;;;;;;5.82;2.33;;;35.50;1.00;;;;;;5054047;28;20459;-79
2021/07/01 11:21:31;;;;;;;2.53;2.13;;;35.60;1.00;;;;;;5053920;28;20037;-79
2021/07/01 11:24:12;;;;;;;3.83;2.17;;;36.00;1.00;;;;;;5053831;28;20017;-79
2021/07/01 11:26:39;;;;;;;2.35;2.25;;;35.00;1.00;;;;;;5053947;28;20029;-79
2021/07/01 11:29:09;;;;;;;2.53;2.33;;;35.90;1.00;;;;;;5054060;28;20025;-79
2021/07/01 11:31:37;;;;;;;;;;;36.20;1.00;;;;;;5054102;28;20033;-79
2021/07/01 11:34:05;;;;;;;2.50;2.30;;;35.30;1.00;;;;;;5053642;28;19908;-79
2021/07/01 11:36:32;;;;;;;8.17;2.30;;;33.60;1.00;;;;;;5052146;28;20041;-79
2021/07/01 11:39:06;;;;;;;3.00;2.10;;;32.00;1.00;;;;;;5054047;28;20033;-79
2021/07/01 11:41:33;;;;;;;4.63;2.10;;;32.10;1.00;;;;;;5053737;28;20053;-79
2021/07/01 11:43:59;;;;;;;2.00;1.90;;;31.50;1.00;;;;;;5053555;28;20095;-79
2021/07/01 11:46:26;;;;;;;2.42;2.10;;;31.00;1.00;;;;;;5053616;28;20055;-79
2021/07/01 11:48:53;;;;;;;3.53;2.17;;;30.80;1.00;;;;;;5052363;28;20029;-79
2021/07/01 11:51:22;;;;;;;2.50;2.22;;;31.20;1.50;;;;;;5051794;28;20027;-79
2021/07/01 11:53:51;;;;;;;2.10;1.88;;;31.70;1.00;;;;;;5053486;28;20034;-79
2021/07/01 11:56:20;;;;;;;4.18;2.13;;;34.20;1.00;;;;;;5053504;28;20031;-79
2021/07/01 11:58:46;;;;;;;3.53;2.40;;;35.80;1.00;;;;;;5053350;28;20032;-80
2021/07/01 12:01:12;;;;;;;4.82;2.17;;;37.00;1.00;;;;;;5053559;28;20437;-79
2021/07/01 12:03:39;;;;;;;2.40;2.17;;;35.80;1.00;;;;;;5051747;28;20485;-79
2021/07/01 12:06:09;;;;;;;1.88;1.77;;;34.10;1.00;;;;;;5052909;28;20037;-80
2021/07/01 12:08:35;;;;;;;2.00;1.80;;;33.00;1.00;;;;;;5053026;28;20029;-79
2021/07/01 12:11:05;;;;;;;3.13;2.90;;;31.10;1.00;;;;;;5053224;28;20489;-79
2021/07/01 12:13:34;;;;;;;2.47;2.20;;;30.30;1.00;;;;;;5053012;28;20433;-79
2021/07/01 12:16:09;;;;;;;6.35;2.58;;;30.50;1.00;;;;;;5053112;28;20104;-79
2021/07/01 12:18:53;;;;;;;2.95;2.50;;;31.80;1.00;;;;;;5052613;28;20064;-78
2021/07/01 12:21:28;;;;;;;2.17;2.00;;;32.30;1.00;;;;;;5052627;28;20041;-79
2021/07/01 12:23:59;;;;;;;2.30;2.03;;;30.90;1.00;;;;;;5053017;28;20392;-79
2021/07/01 12:26:37;;;;;;;4.93;2.35;;;30.80;1.00;;;;;;5053001;28;20442;-79
2021/07/01 12:29:19;;;;;;;5.32;2.10;;;33.00;1.00;;;;;;5052907;28;20021;-79
2021/07/01 12:31:44;;;;;;;3.60;2.63;;;32.10;1.00;;;;;;5052831;28;20028;-79
2021/07/01 12:34:12;;;;;;;4.00;2.60;;;33.80;1.00;;;;;;5052761;28;20029;-79
2021/07/01 12:36:45;;;;;;;3.38;2.50;;;37.10;1.00;;;;;;5052109;28;20393;-79
2021/07/01 12:39:11;;;;;;;3.10;2.53;;;39.00;1.00;;;;;;5052574;28;20035;-79
2021/07/01 12:41:45;;;;;;;2.60;2.40;;;40.40;1.00;;;;;;5052689;28;20532;-79
2021/07/01 12:44:33;;;;;;;4.18;2.65;;;40.10;1.00;;;;;;5052672;28;20029;-80
2021/07/01 12:47:15;;;;;;;2.60;2.42;;;40.50;1.00;;;;;;5052650;28;20060;-80
2021/07/01 12:49:40;;;;;;;3.30;2.80;;;42.00;1.00;;;;;;5052095;28;20473;-80
2021/07/01 12:52:19;;;;;;;3.50;2.50;;;41.70;1.00;;;;;;5051038;28;20055;-79